Time;durP1;ratioP1;P1;durP2;ratioP2;P2;SDS_P1;SDS_P2;PMS_P1;PMS_P2;Temp;Humidity;BMP_temperature;BMP_pressure;BME280_temperature;BME280_humidity;BME280_pressure;Samples;Min_cycle;Max_cycle;Signal;HPM_P1;HPM_P2
2023/11/09 00:00:12;;;;;;;12.77;7.10;;;3.50;99.90;;;;;;5017350;28;20473;-73
2023/11/09 00:02:40;;;;;;;16.53;7.30;;;3.50;99.90;;;;;;5024956;28;21023;-73
2023/11/09 00:05:10;;;;;;;14.40;6.60;;;3.50;99.90;;;;;;5019781;28;20483;-74
2023/11/09 00:07:39;;;;;;;15.60;6.73;;;3.40;99.90;;;;;;5023455;28;20836;-74
2023/11/09 00:10:10;;;;;;;15.80;6.93;;;3.40;99.90;;;;;;5017374;28;20481;-73
2023/11/09 00:12:40;;;;;;;13.67;6.37;;;3.30;99.90;;;;;;5018789;28;20444;-74
2023/11/09 00:15:10;;;;;;;13.53;6.83;;;3.30;99.90;;;;;;5014222;28;20468;-75
2023/11/09 00:17:38;;;;;;;13.20;8.07;;;3.30;99.90;;;;;;5020654;28;20822;-75
2023/11/09 00:20:09;;;;;;;13.30;7.00;;;3.30;99.90;;;;;;5023988;28;20449;-73
2023/11/09 00:22:38;;;;;;;13.00;6.73;;;3.30;99.90;;;;;;5021849;28;22169;-74
2023/11/09 00:25:07;;;;;;;15.67;6.90;;;3.30;99.90;;;;;;5020714;28;20429;-75
2023/11/09 00:27:35;;;;;;;13.00;6.70;;;3.30;99.90;;;;;;5015118;28;20493;-75
2023/11/09 00:30:06;;;;;;;11.80;7.00;;;3.10;99.90;;;;;;5022416;28;20518;-73
2023/11/09 00:32:36;;;;;;;14.37;6.67;;;3.10;99.90;;;;;;5020385;28;20961;-75
2023/11/09 00:35:07;;;;;;;14.27;7.60;;;3.10;99.90;;;;;;5015916;28;20465;-74
2023/11/09 00:37:37;;;;;;;12.97;6.60;;;3.10;99.90;;;;;;5018923;28;20481;-73
2023/11/09 00:40:10;;;;;;;16.23;7.27;;;3.00;99.90;;;;;;5024496;28;20445;-74
2023/11/09 00:42:39;;;;;;;12.90;6.93;;;3.00;99.90;;;;;;5033744;28;20888;-75
2023/11/09 00:45:07;;;;;;;14.93;6.50;;;3.10;99.90;;;;;;5031799;28;20456;-73
2023/11/09 00:47:37;;;;;;;13.80;7.10;;;3.00;99.90;;;;;;5022643;28;20830;-75
2023/11/09 00:50:06;;;;;;;15.27;6.80;;;3.10;99.90;;;;;;5017162;28;20449;-75
2023/11/09 00:52:34;;;;;;;14.50;7.23;;;3.20;99.90;;;;;;5020379;28;20563;-76
2023/11/09 00:55:02;;;;;;;15.47;6.70;;;3.20;99.90;;;;;;5020171;28;20449;-75
2023/11/09 00:57:31;;;;;;;11.87;6.40;;;3.20;99.90;;;;;;5023657;28;20979;-74
2023/11/09 01:00:00;;;;;;;12.00;6.07;;;3.20;99.90;;;;;;5025540;28;20449;-73
2023/11/09 01:02:33;;;;;;;13.60;6.40;;;3.20;99.90;;;;;;5026169;28;20484;-73
2023/11/09 01:05:03;;;;;;;10.77;5.63;;;3.30;99.90;;;;;;5039969;28;20456;-73
2023/11/09 01:07:31;;;;;;;15.07;6.50;;;3.40;99.90;;;;;;5022031;28;20488;-72
2023/11/09 01:09:59;;;;;;;12.60;6.70;;;3.30;99.90;;;;;;5033987;28;20544;-73
2023/11/09 01:12:28;;;;;;;12.50;6.47;;;3.30;99.90;;;;;;5030218;28;20452;-73
2023/11/09 01:14:56;;;;;;;13.63;6.83;;;3.30;99.90;;;;;;5025185;28;20451;-73
2023/11/09 01:17:24;;;;;;;13.63;6.43;;;3.30;99.90;;;;;;5027718;28;20841;-75
2023/11/09 01:19:52;;;;;;;13.20;6.60;;;3.20;99.90;;;;;;5035918;28;20551;-73
2023/11/09 01:22:22;;;;;;;12.87;6.67;;;3.20;99.90;;;;;;5028146;28;20448;-74
2023/11/09 01:24:50;;;;;;;13.53;6.77;;;3.10;99.90;;;;;;5022248;28;21059;-74
2023/11/09 01:27:18;;;;;;;13.30;6.60;;;3.10;99.90;;;;;;5015957;28;20485;-74
2023/11/09 01:29:46;;;;;;;15.13;6.97;;;3.00;99.90;;;;;;5028780;28;20453;-75
2023/11/09 01:32:14;;;;;;;12.10;6.57;;;3.00;99.90;;;;;;5023843;28;20956;-74
2023/11/09 01:34:42;;;;;;;14.27;6.37;;;3.20;99.90;;;;;;5034559;28;20462;-73
2023/11/09 01:37:11;;;;;;;13.73;6.53;;;3.10;99.90;;;;;;5014099;28;20520;-74
2023/11/09 01:39:40;;;;;;;11.33;5.93;;;2.90;99.90;;;;;;5025201;28;20945;-73
2023/11/09 01:42:11;;;;;;;13.00;5.17;;;2.90;99.90;;;;;;5014219;28;20469;-74
2023/11/09 01:44:39;;;;;;;12.33;6.07;;;3.00;99.90;;;;;;5020511;28;21261;-74
2023/11/09 01:47:07;;;;;;;15.53;6.13;;;3.10;99.90;;;;;;5019920;28;20485;-75
2023/11/09 01:49:35;;;;;;;15.73;6.10;;;3.10;99.90;;;;;;5021474;28;20962;-76
2023/11/09 01:52:04;;;;;;;11.60;5.30;;;3.20;99.90;;;;;;5018542;28;20546;-75
2023/11/09 01:54:33;;;;;;;12.03;5.20;;;3.20;99.90;;;;;;5029930;28;20452;-72
2023/11/09 01:57:04;;;;;;;12.00;5.53;;;3.20;99.90;;;;;;5034439;28;20490;-73
2023/11/09 01:59:34;;;;;;;11.50;4.10;;;3.30;99.90;;;;;;5018970;28;20454;-73
2023/11/09 02:02:03;;;;;;;9.60;4.37;;;3.40;99.90;;;;;;5024399;28;20540;-72
2023/11/09 02:04:31;;;;;;;12.80;4.53;;;3.50;99.90;;;;;;5028051;28;20832;-71
2023/11/09 02:06:59;;;;;;;10.03;4.20;;;3.50;99.90;;;;;;5026600;28;20876;-73
2023/11/09 02:09:28;;;;;;;8.63;4.00;;;3.60;99.90;;;;;;5024383;28;20457;-73
2023/11/09 02:11:56;;;;;;;9.83;3.47;;;3.50;99.90;;;;;;5018014;28;20453;-73
2023/11/09 02:14:25;;;;;;;9.03;3.23;;;3.60;99.90;;;;;;5014826;28;20456;-75
2023/11/09 02:16:54;;;;;;;8.73;3.70;;;3.70;99.90;;;;;;5025501;28;21255;-74
2023/11/09 02:19:25;;;;;;;9.80;3.83;;;3.80;99.90;;;;;;5019944;28;20452;-72
2023/11/09 02:21:53;;;;;;;11.13;4.50;;;3.60;99.90;;;;;;5020489;28;20935;-73
2023/11/09 02:24:25;;;;;;;9.67;4.27;;;3.60;99.90;;;;;;5018779;28;21180;-72
2023/11/09 02:26:55;;;;;;;10.23;4.13;;;3.60;99.90;;;;;;5022279;28;21010;-72
2023/11/09 02:29:25;;;;;;;10.47;4.77;;;3.60;99.90;;;;;;5022391;28;20556;-72
2023/11/09 02:31:53;;;;;;;12.97;5.20;;;3.60;99.90;;;;;;5021180;28;20457;-73
2023/11/09 02:34:23;;;;;;;10.63;5.07;;;3.60;99.90;;;;;;5033943;28;20456;-73
2023/11/09 02:36:52;;;;;;;10.43;4.70;;;3.60;99.90;;;;;;5031246;28;20514;-70
2023/11/09 02:39:20;;;;;;;10.43;5.30;;;3.60;99.90;;;;;;5020211;28;20448;-73
2023/11/09 02:41:50;;;;;;;13.23;6.17;;;3.50;99.90;;;;;;5018797;28;20461;-75
2023/11/09 02:44:18;;;;;;;12.10;5.50;;;3.40;99.90;;;;;;5013640;28;20456;-73
2023/11/09 02:46:46;;;;;;;13.20;6.20;;;3.50;99.90;;;;;;5023992;28;20554;-73
2023/11/09 02:49:13;;;;;;;15.53;7.00;;;3.70;99.90;;;;;;5025146;28;20524;-73
2023/11/09 02:51:41;;;;;;;12.27;5.67;;;3.90;99.90;;;;;;5018641;28;20460;-73
2023/11/09 02:54:09;;;;;;;15.50;5.40;;;3.90;99.90;;;;;;5020401;28;20983;-73
2023/11/09 02:56:38;;;;;;;14.53;6.60;;;3.90;99.90;;;;;;5013987;28;20972;-73
2023/11/09 02:59:07;;;;;;;13.57;6.30;;;3.80;99.90;;;;;;5021431;28;20468;-73
2023/11/09 03:01:35;;;;;;;13.03;6.30;;;3.80;99.90;;;;;;5021942;28;20519;-74
2023/11/09 03:04:04;;;;;;;11.47;5.63;;;3.80;99.90;;;;;;5014995;28;20611;-73
2023/11/09 03:06:32;;;;;;;12.50;5.97;;;3.70;99.90;;;;;;5024523;28;20473;-73
2023/11/09 03:09:00;;;;;;;15.63;7.07;;;3.80;99.90;;;;;;5021784;28;20452;-75
2023/11/09 03:11:28;;;;;;;14.50;6.00;;;3.80;99.90;;;;;;5026851;28;20484;-73
2023/11/09 03:13:56;;;;;;;13.60;6.23;;;3.80;99.90;;;;;;5022431;28;20484;-73
2023/11/09 03:16:25;;;;;;;11.77;5.70;;;3.90;99.90;;;;;;5022163;28;20473;-73
2023/11/09 03:18:54;;;;;;;12.37;5.60;;;4.00;99.90;;;;;;5024883;28;20516;-75
2023/11/09 03:21:22;;;;;;;12.70;6.27;;;4.10;99.90;;;;;;5019994;28;20449;-74
2023/11/09 03:23:50;;;;;;;9.97;5.30;;;4.00;99.90;;;;;;5010394;28;20932;-74
2023/11/09 03:26:18;;;;;;;13.57;6.57;;;3.90;99.90;;;;;;5023180;28;20576;-72
2023/11/09 03:28:46;;;;;;;15.10;6.40;;;3.80;99.90;;;;;;5017943;28;20496;-73
2023/11/09 03:31:14;;;;;;;15.47;6.17;;;3.60;99.90;;;;;;5013094;28;20545;-73
2023/11/09 03:33:43;;;;;;;10.37;4.93;;;3.50;99.90;;;;;;5018100;28;20539;-73
2023/11/09 03:36:17;;;;;;;11.30;5.50;;;3.50;99.90;;;;;;5027868;28;20530;-74
2023/11/09 03:38:46;;;;;;;11.90;5.60;;;3.40;99.90;;;;;;5019646;28;20485;-73
2023/11/09 03:41:14;;;;;;;10.77;5.43;;;3.30;99.90;;;;;;5031068;28;20537;-73
2023/11/09 03:43:42;;;;;;;16.80;6.90;;;3.40;99.90;;;;;;5026454;28;20564;-72
2023/11/09 03:46:13;;;;;;;13.20;6.10;;;3.50;99.90;;;;;;5020424;28;20567;-73
2023/11/09 03:48:43;;;;;;;13.67;6.40;;;3.40;99.90;;;;;;5028917;28;20487;-73
2023/11/09 03:51:11;;;;;;;18.27;6.50;;;3.40;99.90;;;;;;5025654;28;20829;-74
2023/11/09 03:53:40;;;;;;;12.30;5.40;;;3.40;99.90;;;;;;5027670;28;20508;-73
2023/11/09 03:56:08;;;;;;;16.40;6.87;;;3.40;99.90;;;;;;5034974;28;20480;-73
2023/11/09 03:58:36;;;;;;;14.10;6.20;;;3.30;99.90;;;;;;5040939;28;20856;-73
2023/11/09 04:01:04;;;;;;;12.93;6.40;;;3.20;99.90;;;;;;5037699;28;20521;-74
2023/11/09 04:03:32;;;;;;;12.67;6.37;;;3.00;99.90;;;;;;5029168;28;20477;-73
2023/11/09 04:06:01;;;;;;;12.83;5.83;;;3.00;99.90;;;;;;5017851;28;20477;-73
2023/11/09 04:08:29;;;;;;;11.60;5.80;;;3.10;99.90;;;;;;5020398;28;20496;-72
2023/11/09 04:10:57;;;;;;;11.43;5.60;;;3.00;99.90;;;;;;5016847;28;20555;-73
2023/11/09 04:13:25;;;;;;;14.17;6.20;;;3.10;99.90;;;;;;5027901;28;20476;-73
2023/11/09 04:15:53;;;;;;;10.60;5.70;;;3.00;99.90;;;;;;5027252;28;20478;-73
2023/11/09 04:18:21;;;;;;;11.17;4.90;;;3.10;99.90;;;;;;5024730;28;20497;-73
2023/11/09 04:20:49;;;;;;;11.80;5.80;;;3.20;99.90;;;;;;5020479;28;20456;-73
2023/11/09 04:23:18;;;;;;;11.00;4.67;;;3.30;99.90;;;;;;5026567;28;20555;-73
2023/11/09 04:25:46;;;;;;;11.47;4.53;;;3.40;99.90;;;;;;5024766;28;20538;-73
2023/11/09 04:28:14;;;;;;;12.33;4.20;;;3.50;99.90;;;;;;5026123;28;20922;-73
2023/11/09 04:30:42;;;;;;;9.90;4.70;;;3.70;99.90;;;;;;5028737;28;20492;-74
2023/11/09 04:33:10;;;;;;;15.70;5.67;;;3.80;99.90;;;;;;5022055;28;20455;-74
2023/11/09 04:35:39;;;;;;;12.73;6.20;;;3.80;99.90;;;;;;5021730;28;20444;-74
2023/11/09 04:38:11;;;;;;;13.50;6.60;;;3.80;99.90;;;;;;5020068;28;21119;-73
2023/11/09 04:40:44;;;;;;;12.23;4.80;;;3.90;99.90;;;;;;5022619;28;20518;-73
2023/11/09 04:43:12;;;;;;;12.93;5.47;;;3.90;99.90;;;;;;5019398;28;21034;-73
2023/11/09 04:45:42;;;;;;;10.90;4.77;;;3.80;99.90;;;;;;5013555;28;20473;-73
2023/11/09 04:48:19;;;;;;;11.60;5.53;;;3.80;99.90;;;;;;5025393;28;20551;-73
2023/11/09 04:50:52;;;;;;;11.87;5.47;;;3.80;99.90;;;;;;5031519;28;20509;-74
2023/11/09 04:53:30;;;;;;;11.53;5.70;;;3.90;99.90;;;;;;5023170;28;20482;-73
2023/11/09 04:56:07;;;;;;;13.60;5.50;;;3.70;99.90;;;;;;5022733;28;20473;-73
2023/11/09 04:58:44;;;;;;;14.93;6.13;;;3.70;99.90;;;;;;5020730;28;20982;-73
2023/11/09 05:06:51;;;;;;;10.60;4.80;;;3.70;99.90;;;;;;5023667;28;20464;-73
2023/11/09 05:09:19;;;;;;;11.80;6.00;;;3.70;99.90;;;;;;5020399;28;20499;-72
2023/11/09 05:11:50;;;;;;;11.70;4.77;;;3.60;99.90;;;;;;5023878;28;20475;-73
2023/11/09 05:14:18;;;;;;;13.40;5.40;;;3.50;99.90;;;;;;5020025;28;20452;-73
2023/11/09 05:16:47;;;;;;;13.10;5.50;;;3.40;99.90;;;;;;5028691;28;20468;-72
2023/11/09 05:19:15;;;;;;;12.70;5.43;;;3.40;99.90;;;;;;5026234;28;20473;-73
2023/11/09 05:21:43;;;;;;;11.27;5.00;;;3.40;99.90;;;;;;5025531;28;20473;-74
2023/11/09 05:24:11;;;;;;;10.23;4.40;;;3.60;99.90;;;;;;5018266;28;20469;-72
2023/11/09 05:26:39;;;;;;;12.87;5.33;;;3.70;99.90;;;;;;5028856;28;20580;-73
2023/11/09 05:29:09;;;;;;;10.70;4.30;;;3.80;99.90;;;;;;5026560;28;21152;-72
2023/11/09 05:31:38;;;;;;;11.37;4.43;;;3.80;99.90;;;;;;5023313;28;20944;-76
2023/11/09 05:34:07;;;;;;;10.40;4.20;;;3.70;99.90;;;;;;5023218;28;20454;-73
2023/11/09 05:36:35;;;;;;;16.13;6.18;;;3.60;99.90;;;;;;5021129;28;20531;-74
2023/11/09 05:39:04;;;;;;;9.40;4.70;;;3.50;99.90;;;;;;5022209;28;20252;-70
2023/11/09 05:41:33;;;;;;;14.30;4.90;;;3.50;99.90;;;;;;5021521;28;20476;-71
2023/11/09 05:44:01;;;;;;;11.63;4.73;;;3.50;99.90;;;;;;5027308;28;20451;-72
2023/11/09 05:46:31;;;;;;;12.30;5.67;;;3.40;99.90;;;;;;5030047;28;21011;-69
2023/11/09 05:48:59;;;;;;;11.50;6.03;;;3.30;99.90;;;;;;5028388;28;20872;-68
2023/11/09 05:51:28;;;;;;;12.00;4.37;;;3.30;99.90;;;;;;5038021;28;20543;-71
2023/11/09 05:53:57;;;;;;;10.50;4.63;;;3.50;99.90;;;;;;5036511;28;20449;-74
2023/11/09 05:56:26;;;;;;;10.50;4.60;;;3.50;99.90;;;;;;5026913;28;20483;-70
2023/11/09 05:58:54;;;;;;;11.90;4.53;;;3.60;99.90;;;;;;5034873;28;20449;-71
2023/11/09 06:01:30;;;;;;;12.60;4.30;;;3.60;99.90;;;;;;5036618;28;20840;-69
2023/11/09 06:04:01;;;;;;;10.10;4.23;;;3.60;99.90;;;;;;5032324;28;21184;-71
2023/11/09 06:06:29;;;;;;;11.43;4.57;;;3.90;99.90;;;;;;5033319;28;20473;-70
2023/11/09 06:08:57;;;;;;;11.27;3.97;;;3.90;99.90;;;;;;5031744;28;20470;-71
2023/11/09 06:11:29;;;;;;;10.80;4.07;;;4.00;99.90;;;;;;5020836;28;20994;-70
2023/11/09 06:13:57;;;;;;;11.80;5.33;;;3.90;99.90;;;;;;5015150;28;20455;-72
2023/11/09 06:16:26;;;;;;;11.37;4.63;;;4.00;99.90;;;;;;5027648;28;20485;-71
2023/11/09 06:18:56;;;;;;;11.07;3.83;;;4.10;99.90;;;;;;5014947;28;20468;-71
2023/11/09 06:21:25;;;;;;;10.10;4.00;;;4.10;99.90;;;;;;5025853;28;20477;-71
2023/11/09 06:23:53;;;;;;;11.97;4.77;;;4.20;99.90;;;;;;5024725;28;20482;-71
2023/11/09 06:26:24;;;;;;;11.20;4.40;;;4.20;99.90;;;;;;5021168;28;20480;-70
2023/11/09 06:28:52;;;;;;;12.00;5.07;;;4.20;99.90;;;;;;5025536;28;20485;-71
2023/11/09 06:31:22;;;;;;;10.10;4.30;;;4.20;99.90;;;;;;5019603;28;20467;-73
2023/11/09 06:33:51;;;;;;;11.90;4.70;;;4.30;99.90;;;;;;5018314;28;21013;-72
2023/11/09 06:36:20;;;;;;;10.10;4.37;;;4.40;99.90;;;;;;5019871;28;20476;-72
2023/11/09 06:38:49;;;;;;;9.80;4.00;;;4.40;99.90;;;;;;5023576;28;20457;-72
2023/11/09 06:41:18;;;;;;;9.67;4.27;;;4.40;99.90;;;;;;5023052;28;20474;-72
2023/11/09 06:43:46;;;;;;;11.27;4.60;;;4.40;99.90;;;;;;5019156;28;20503;-71
2023/11/09 06:46:14;;;;;;;10.13;4.00;;;4.50;99.90;;;;;;5020498;28;20568;-70
2023/11/09 06:48:41;;;;;;;10.67;3.40;;;4.50;99.90;;;;;;5028847;28;20487;-71
2023/11/09 06:51:09;;;;;;;10.13;3.80;;;4.60;99.90;;;;;;5037422;28;20470;-72
2023/11/09 06:53:37;;;;;;;10.97;3.47;;;4.80;99.90;;;;;;5034426;28;20546;-72
2023/11/09 06:56:07;;;;;;;10.03;3.40;;;4.90;99.90;;;;;;5034729;28;20469;-73
2023/11/09 06:58:35;;;;;;;11.10;3.53;;;5.00;99.90;;;;;;5018880;28;20544;-71
2023/11/09 07:01:04;;;;;;;9.67;3.43;;;5.10;99.90;;;;;;5016144;28;20452;-71
2023/11/09 07:03:31;;;;;;;10.23;3.60;;;5.20;99.90;;;;;;5021698;28;20458;-72
2023/11/09 07:05:59;;;;;;;8.80;3.13;;;5.30;99.90;;;;;;5022924;28;20479;-73
2023/11/09 07:08:28;;;;;;;12.50;3.60;;;5.40;99.90;;;;;;5017445;28;20542;-72
2023/11/09 07:10:58;;;;;;;9.37;3.33;;;5.60;99.90;;;;;;5021908;28;20859;-72
2023/11/09 07:13:27;;;;;;;8.50;3.20;;;5.80;99.90;;;;;;5014502;28;20471;-72
2023/11/09 07:15:56;;;;;;;11.13;4.60;;;6.00;99.90;;;;;;5024174;28;20465;-71
2023/11/09 07:18:24;;;;;;;10.43;3.37;;;6.10;99.90;;;;;;5015804;28;21007;-73
2023/11/09 07:20:52;;;;;;;11.93;3.80;;;6.20;99.90;;;;;;5013034;28;20545;-72
2023/11/09 07:23:34;;;;;;;8.37;3.10;;;6.30;99.90;;;;;;5017129;28;20501;-72
2023/11/09 07:26:02;;;;;;;9.60;3.47;;;6.40;99.90;;;;;;5023221;28;21009;-72
2023/11/09 07:28:31;;;;;;;9.77;3.30;;;6.30;99.90;;;;;;5025183;28;20510;-72
2023/11/09 07:31:00;;;;;;;9.53;3.70;;;6.40;99.90;;;;;;5022196;28;20489;-72
2023/11/09 07:33:29;;;;;;;10.03;4.13;;;6.50;99.90;;;;;;5023740;28;20482;-71
2023/11/09 07:35:57;;;;;;;9.30;3.03;;;6.70;99.90;;;;;;5017035;28;20484;-70
2023/11/09 07:38:27;;;;;;;10.53;3.53;;;6.70;99.90;;;;;;5038388;28;20460;-71
2023/11/09 07:40:55;;;;;;;9.20;3.93;;;6.70;99.90;;;;;;5025357;28;20500;-70
2023/11/09 07:43:25;;;;;;;8.77;3.17;;;6.90;99.90;;;;;;5036580;28;20468;-70
2023/11/09 07:45:55;;;;;;;10.30;3.90;;;7.00;99.90;;;;;;5022253;28;20456;-71
2023/11/09 07:48:24;;;;;;;9.23;3.47;;;7.10;99.90;;;;;;5018547;28;20490;-73
2023/11/09 07:50:55;;;;;;;9.03;3.20;;;7.00;99.90;;;;;;5023515;28;20484;-72
2023/11/09 07:53:23;;;;;;;8.97;2.93;;;7.20;99.90;;;;;;5019180;28;20555;-70
2023/11/09 07:55:51;;;;;;;8.70;3.17;;;7.30;99.90;;;;;;5024070;28;20454;-72
2023/11/09 07:58:20;;;;;;;8.77;3.40;;;7.30;99.90;;;;;;5020368;28;20456;-72
2023/11/09 08:00:50;;;;;;;11.23;3.33;;;7.30;99.90;;;;;;5024232;28;20925;-71
2023/11/09 08:03:19;;;;;;;12.20;3.30;;;7.40;99.90;;;;;;5021240;28;20905;-71
2023/11/09 08:05:47;;;;;;;8.10;3.20;;;7.40;99.90;;;;;;5025146;28;20457;-73
2023/11/09 08:08:16;;;;;;;12.17;3.17;;;7.40;99.90;;;;;;5020260;28;20452;-72
2023/11/09 08:10:45;;;;;;;8.53;2.47;;;7.30;99.90;;;;;;5038158;28;20510;-71
2023/11/09 08:13:13;;;;;;;10.47;2.67;;;7.40;99.90;;;;;;5022086;28;20469;-72
2023/11/09 08:15:41;;;;;;;9.60;2.63;;;7.50;99.90;;;;;;5038947;28;20475;-72
2023/11/09 08:18:09;;;;;;;8.30;2.60;;;7.70;99.90;;;;;;5036665;28;20974;-73
2023/11/09 08:20:39;;;;;;;8.20;2.60;;;7.70;99.90;;;;;;5024705;28;20453;-71
2023/11/09 08:23:08;;;;;;;8.23;2.20;;;7.80;99.90;;;;;;5024859;28;20502;-73
2023/11/09 08:25:36;;;;;;;7.20;2.00;;;7.90;99.90;;;;;;5034889;28;20444;-70
2023/11/09 08:28:04;;;;;;;6.90;1.83;;;8.00;99.90;;;;;;5040357;28;20452;-71
2023/11/09 08:30:33;;;;;;;7.50;2.20;;;8.10;99.90;;;;;;5031921;28;20599;-70
2023/11/09 08:33:02;;;;;;;7.30;1.87;;;8.20;99.90;;;;;;5022799;28;20445;-71
2023/11/09 08:35:30;;;;;;;6.80;1.60;;;8.40;99.90;;;;;;5032459;28;20460;-71
2023/11/09 08:38:01;;;;;;;6.60;1.53;;;8.50;99.90;;;;;;5034634;28;20494;-70
2023/11/09 08:40:29;;;;;;;7.37;1.50;;;8.60;99.90;;;;;;5037297;28;20714;-71
2023/11/09 08:42:58;;;;;;;6.63;1.47;;;8.80;99.90;;;;;;5021113;28;20542;-70
2023/11/09 08:45:28;;;;;;;6.67;1.60;;;9.00;99.90;;;;;;5037919;28;20460;-72
2023/11/09 08:47:57;;;;;;;6.77;1.50;;;9.10;99.90;;;;;;5014429;28;20472;-71
2023/11/09 08:50:26;;;;;;;7.10;1.77;;;9.30;99.90;;;;;;5020479;28;20585;-71
2023/11/09 08:52:54;;;;;;;6.80;1.23;;;9.40;99.90;;;;;;5024621;28;20508;-71
2023/11/09 08:55:25;;;;;;;6.80;1.43;;;9.50;99.90;;;;;;5028218;28;20989;-72
2023/11/09 08:57:54;;;;;;;7.57;1.70;;;9.70;99.90;;;;;;5028195;28;21526;-71
2023/11/09 09:00:23;;;;;;;6.60;1.50;;;9.70;99.90;;;;;;5021933;28;20479;-70
2023/11/09 09:02:54;;;;;;;6.93;1.43;;;9.70;99.90;;;;;;5027099;28;20267;-71
2023/11/09 09:05:24;;;;;;;7.37;1.73;;;9.80;99.90;;;;;;5025836;28;20887;-71
2023/11/09 09:07:54;;;;;;;7.47;1.87;;;9.90;99.90;;;;;;5025274;28;20470;-72
2023/11/09 09:10:29;;;;;;;6.63;1.60;;;9.90;99.90;;;;;;5022685;28;20475;-71
2023/11/09 09:12:59;;;;;;;7.17;1.80;;;9.90;99.90;;;;;;5024459;28;20446;-71
2023/11/09 09:15:28;;;;;;;10.63;1.87;;;9.90;99.90;;;;;;5024931;28;20442;-73
2023/11/09 09:17:58;;;;;;;6.87;1.90;;;10.00;99.90;;;;;;5025363;28;20475;-72
2023/11/09 09:20:28;;;;;;;7.00;1.63;;;10.00;99.90;;;;;;5023901;28;20446;-71
2023/11/09 09:22:59;;;;;;;7.43;2.30;;;10.10;99.90;;;;;;5023789;28;20885;-71
2023/11/09 09:25:29;;;;;;;6.50;1.73;;;10.20;99.90;;;;;;5023438;28;20455;-70
2023/11/09 09:27:58;;;;;;;10.50;2.10;;;10.20;99.90;;;;;;5023548;28;20479;-71
2023/11/09 09:30:27;;;;;;;6.70;1.40;;;10.10;99.90;;;;;;5023973;28;20478;-71
2023/11/09 09:32:56;;;;;;;6.90;1.50;;;10.10;99.90;;;;;;5023192;28;20442;-69
2023/11/09 09:35:25;;;;;;;7.40;2.20;;;10.10;99.90;;;;;;5022650;28;20467;-71
2023/11/09 09:38:02;;;;;;;12.80;2.20;;;10.10;99.90;;;;;;5024243;28;20541;-72
2023/11/09 09:40:36;;;;;;;7.60;1.83;;;10.10;99.90;;;;;;5026235;28;20858;-72
2023/11/09 09:43:19;;;;;;;8.80;1.73;;;10.10;99.90;;;;;;5026420;28;20463;-72
2023/11/09 09:45:56;;;;;;;15.57;3.93;;;10.20;99.90;;;;;;5023533;28;20469;-70
2023/11/09 09:48:27;;;;;;;8.77;1.60;;;10.20;99.90;;;;;;5027316;28;20472;-73
2023/11/09 09:51:00;;;;;;;6.77;1.63;;;10.30;99.90;;;;;;5026504;28;20483;-72
2023/11/09 09:53:30;;;;;;;7.80;1.50;;;10.40;99.90;;;;;;5025747;28;20481;-72
2023/11/09 09:56:00;;;;;;;8.00;1.60;;;10.50;99.90;;;;;;5026715;28;20537;-72
2023/11/09 09:58:31;;;;;;;6.67;1.60;;;10.60;99.90;;;;;;5025556;28;21038;-73
2023/11/09 10:01:02;;;;;;;7.50;1.77;;;10.60;99.90;;;;;;5020907;28;20479;-72
2023/11/09 10:03:34;;;;;;;9.27;2.00;;;10.70;99.90;;;;;;5023160;28;20479;-73
2023/11/09 10:06:05;;;;;;;7.80;1.70;;;10.80;99.90;;;;;;5023559;28;21002;-72
2023/11/09 10:08:35;;;;;;;7.00;1.63;;;11.00;99.90;;;;;;5016881;28;20489;-73
2023/11/09 10:11:05;;;;;;;7.60;1.47;;;11.20;99.90;;;;;;5023927;28;20479;-72
2023/11/09 10:13:35;;;;;;;8.47;1.33;;;11.30;99.90;;;;;;5023773;28;20820;-73
2023/11/09 10:16:04;;;;;;;7.10;1.10;;;11.50;99.90;;;;;;5022914;28;20538;-73
2023/11/09 10:18:33;;;;;;;6.47;1.47;;;11.60;99.90;;;;;;5024091;28;20887;-74
2023/11/09 10:21:03;;;;;;;7.13;1.80;;;11.60;99.90;;;;;;5025187;28;20446;-72
2023/11/09 10:23:31;;;;;;;8.40;1.60;;;11.70;99.90;;;;;;5019232;28;20429;-73
2023/11/09 10:26:01;;;;;;;6.80;1.40;;;11.80;99.90;;;;;;5025146;28;20526;-74
2023/11/09 10:28:32;;;;;;;7.53;1.67;;;11.90;99.90;;;;;;5024948;28;20486;-71
2023/11/09 10:31:01;;;;;;;6.07;1.43;;;12.00;99.90;;;;;;5023259;28;20480;-70
2023/11/09 10:33:30;;;;;;;7.43;1.50;;;12.10;99.90;;;;;;5025569;28;20452;-71
2023/11/09 10:35:58;;;;;;;6.27;1.10;;;12.10;99.90;;;;;;5022630;28;20931;-70
2023/11/09 10:38:27;;;;;;;6.70;1.07;;;12.10;99.90;;;;;;5023268;28;21029;-69
2023/11/09 10:40:59;;;;;;;8.33;1.40;;;12.20;99.90;;;;;;5017478;28;20456;-72
2023/11/09 10:43:50;;;;;;;6.70;1.20;;;12.20;99.90;;;;;;5017855;28;20958;-74
2023/11/09 10:46:20;;;;;;;6.00;1.17;;;12.30;99.90;;;;;;5024505;28;20475;-72
2023/11/09 10:48:50;;;;;;;5.70;0.90;;;12.30;99.90;;;;;;5021044;28;20513;-72
2023/11/09 10:51:20;;;;;;;14.10;1.97;;;12.30;99.90;;;;;;5021550;28;20484;-73
2023/11/09 10:53:49;;;;;;;29.80;5.53;;;12.30;99.90;;;;;;5016361;28;20479;-73
2023/11/09 10:56:19;;;;;;;22.77;5.60;;;12.40;99.90;;;;;;5026271;28;21136;-71
2023/11/09 10:58:49;;;;;;;6.30;1.20;;;12.40;99.90;;;;;;5021023;28;20478;-73
2023/11/09 11:01:24;;;;;;;7.03;1.03;;;12.40;99.90;;;;;;5024747;28;20450;-72
2023/11/09 11:03:55;;;;;;;8.47;2.03;;;12.40;99.90;;;;;;5032191;28;20878;-72
2023/11/09 11:06:29;;;;;;;6.17;0.90;;;12.40;99.90;;;;;;5023139;28;21020;-72
2023/11/09 11:09:07;;;;;;;6.30;1.10;;;12.30;99.90;;;;;;5031866;28;20450;-73
2023/11/09 11:11:36;;;;;;;5.80;0.90;;;12.40;99.90;;;;;;5035360;28;20481;-72
2023/11/09 11:14:09;;;;;;;8.13;1.20;;;12.50;99.90;;;;;;5018029;28;20458;-72
2023/11/09 11:17:11;;;;;;;6.67;1.80;;;12.70;99.90;;;;;;5016454;28;20483;-72
2023/11/09 11:20:17;;;;;;;6.00;0.90;;;12.70;99.90;;;;;;5020149;28;20454;-73
2023/11/09 11:22:58;;;;;;;6.53;1.00;;;12.70;99.90;;;;;;5019611;28;20443;-69
2023/11/09 11:25:35;;;;;;;6.43;0.97;;;12.80;99.90;;;;;;5013076;28;20461;-72
2023/11/09 11:28:06;;;;;;;5.53;0.70;;;13.00;99.90;;;;;;5020631;28;20720;-71
2023/11/09 11:30:36;;;;;;;6.43;1.07;;;13.10;99.90;;;;;;5026646;28;20455;-71
2023/11/09 11:33:08;;;;;;;6.13;1.10;;;13.20;99.90;;;;;;5021446;28;20489;-72
2023/11/09 11:35:42;;;;;;;7.13;1.00;;;13.20;99.90;;;;;;5014518;28;20882;-72
2023/11/09 11:38:24;;;;;;;6.37;1.20;;;13.30;99.90;;;;;;5034346;28;20464;-69
2023/11/09 11:40:58;;;;;;;6.50;1.10;;;13.20;99.90;;;;;;5013079;28;20482;-71
2023/11/09 11:43:36;;;;;;;7.20;1.00;;;13.30;99.90;;;;;;5021303;28;20452;-71
2023/11/09 11:46:08;;;;;;;6.00;0.83;;;13.40;99.90;;;;;;5013370;28;20465;-72
2023/11/09 11:48:37;;;;;;;6.00;0.80;;;13.30;99.90;;;;;;5020473;28;20452;-72
2023/11/09 11:51:06;;;;;;;8.33;1.00;;;13.30;99.90;;;;;;5015822;28;20460;-72
2023/11/09 11:53:36;;;;;;;6.27;0.73;;;13.20;99.90;;;;;;5025188;28;20481;-72
2023/11/09 11:56:09;;;;;;;5.90;1.00;;;13.10;99.90;;;;;;5021679;28;20477;-72
2023/11/09 11:58:52;;;;;;;7.00;0.83;;;13.00;99.90;;;;;;5023739;28;20475;-74
2023/11/09 12:01:23;;;;;;;5.90;0.70;;;12.90;99.90;;;;;;5022204;28;20456;-73
2023/11/09 12:04:03;;;;;;;6.53;0.80;;;12.90;99.90;;;;;;5021446;28;20458;-74
2023/11/09 12:06:34;;;;;;;5.90;0.70;;;12.90;99.90;;;;;;5027106;28;20892;-73
2023/11/09 12:09:07;;;;;;;5.90;0.73;;;12.90;99.90;;;;;;5027449;28;20454;-74
2023/11/09 12:11:43;;;;;;;6.47;0.90;;;12.90;99.90;;;;;;5022305;28;20557;-73
2023/11/09 12:14:12;;;;;;;5.63;0.50;;;12.90;99.90;;;;;;5026845;28;20455;-72
2023/11/09 12:16:41;;;;;;;5.90;0.80;;;13.00;99.90;;;;;;5028653;28;20463;-73
2023/11/09 12:19:12;;;;;;;5.87;0.70;;;13.00;99.90;;;;;;5026275;28;20505;-74
2023/11/09 12:21:41;;;;;;;5.70;0.60;;;13.10;99.90;;;;;;5023395;28;20459;-73
2023/11/09 12:24:12;;;;;;;6.27;0.70;;;13.10;99.90;;;;;;5023451;28;20453;-74
2023/11/09 12:26:42;;;;;;;5.60;0.60;;;13.10;99.90;;;;;;5018402;28;20473;-72
2023/11/09 12:29:11;;;;;;;5.80;0.70;;;13.10;99.90;;;;;;5020029;28;20837;-74
2023/11/09 12:31:40;;;;;;;5.87;0.50;;;13.10;99.90;;;;;;5027544;28;20459;-73
2023/11/09 12:34:10;;;;;;;5.60;0.60;;;13.10;99.90;;;;;;5025679;28;20475;-72
2023/11/09 12:36:41;;;;;;;9.57;0.67;;;13.10;99.90;;;;;;5030388;28;20517;-69
2023/11/09 12:39:28;;;;;;;7.50;0.50;;;13.10;99.90;;;;;;5024942;28;20471;-71
2023/11/09 12:41:58;;;;;;;6.67;0.83;;;13.10;99.90;;;;;;5021356;28;20471;-73
2023/11/09 12:44:29;;;;;;;5.50;0.40;;;13.20;99.90;;;;;;5020618;28;20547;-73
2023/11/09 12:47:13;;;;;;;5.50;0.30;;;13.20;99.90;;;;;;5022852;28;20471;-73
2023/11/09 12:49:43;;;;;;;5.40;0.40;;;13.10;99.90;;;;;;5020277;28;20460;-73
2023/11/09 12:52:12;;;;;;;5.60;0.60;;;13.00;99.90;;;;;;5020492;28;21082;-73
2023/11/09 12:54:40;;;;;;;5.70;0.60;;;13.00;99.90;;;;;;5025621;28;20484;-72
2023/11/09 12:57:16;;;;;;;6.63;0.57;;;13.10;99.90;;;;;;5026790;28;20509;-72
2023/11/09 12:59:45;;;;;;;5.70;0.50;;;12.90;99.90;;;;;;5024464;28;20459;-72
2023/11/09 13:02:18;;;;;;;6.07;0.43;;;12.90;99.90;;;;;;5025275;28;20489;-72
2023/11/09 13:04:48;;;;;;;6.20;0.40;;;12.80;99.90;;;;;;5019791;28;20453;-74
2023/11/09 13:07:17;;;;;;;5.50;0.50;;;12.80;99.90;;;;;;5022230;28;20485;-72